Time;durP1;ratioP1;P1;durP2;ratioP2;P2;SDS_P1;SDS_P2;PMS_P1;PMS_P2;Temp;Humidity;BMP_temperature;BMP_pressure;BME280_temperature;BME280_humidity;BME280_pressure;Samples;Min_cycle;Max_cycle;Signal;HPM_P1;HPM_P2
2023/12/01 00:02:21;;;;;;;22.63;17.13;;;;;;;-1.35;66.82;98357.72;10410148;28;20235;-36
2023/12/01 00:07:23;;;;;;;23.13;17.40;;;;;;;-1.33;66.87;98349.69;10408806;28;20648;-36
2023/12/01 00:12:25;;;;;;;22.50;17.00;;;;;;;-1.29;66.40;98341.41;10417283;28;20316;-36
2023/12/01 00:17:27;;;;;;;24.67;16.70;;;;;;;-0.69;65.33;98246.41;10415293;28;20711;-36
2023/12/01 00:22:28;;;;;;;23.73;17.90;;;;;;;-0.87;65.45;98295.50;10414701;28;20244;-36
2023/12/01 00:27:30;;;;;;;29.83;18.07;;;;;;;-0.56;65.50;98209.28;10409620;28;20241;-36
2023/12/01 00:32:32;;;;;;;24.33;17.00;;;;;;;-1.03;66.09;98314.50;10394804;28;20238;-36
2023/12/01 00:37:34;;;;;;;27.33;17.60;;;;;;;-1.50;67.97;98357.31;10412472;28;20614;-36
2023/12/01 00:42:36;;;;;;;26.57;17.00;;;;;;;-1.93;68.46;98451.22;10414612;28;20327;-36
2023/12/01 00:47:38;;;;;;;25.60;17.07;;;;;;;-2.03;68.33;98465.31;10413824;28;20309;-36
2023/12/01 00:52:40;;;;;;;26.57;17.90;;;;;;;-1.39;67.66;98312.56;10410040;28;20234;-36
2023/12/01 00:57:42;;;;;;;27.50;18.03;;;;;;;-2.18;68.88;98467.47;10407452;28;20716;-36
2023/12/01 01:02:43;;;;;;;27.20;18.33;;;;;;;-1.87;69.39;98331.84;10415725;28;20572;-36
2023/12/01 01:07:45;;;;;;;25.30;17.17;;;;;;;-1.52;68.19;98319.09;10407331;28;20238;-36
2023/12/01 01:12:47;;;;;;;23.97;17.57;;;;;;;-0.47;66.56;98145.31;10410485;28;20272;-36
2023/12/01 01:17:49;;;;;;;27.77;16.80;;;;;;;-1.07;66.90;98292.94;10413119;28;20242;-37
2023/12/01 01:22:51;;;;;;;24.80;17.40;;;;;;;-1.69;68.97;98366.06;10414914;28;20218;-35
2023/12/01 01:27:52;;;;;;;25.20;17.63;;;;;;;-1.33;67.71;98334.75;10409955;28;20327;-36
2023/12/01 01:32:54;;;;;;;27.87;17.93;;;;;;;-1.25;67.29;98352.44;10409981;28;20316;-36
2023/12/01 01:37:56;;;;;;;23.40;17.60;;;;;;;-0.81;66.56;98266.00;10411289;28;20875;-34
2023/12/01 01:42:59;;;;;;;25.87;17.03;;;;;;;-1.19;66.21;98401.75;10395056;28;20733;-36
2023/12/01 01:48:00;;;;;;;28.47;17.63;;;;;;;-1.53;69.39;98335.78;10416138;28;20238;-35
2023/12/01 01:53:03;;;;;;;26.77;18.40;;;;;;;-1.89;69.23;98435.22;10412046;28;20679;-36
2023/12/01 01:58:05;;;;;;;28.27;20.00;;;;;;;-2.10;69.73;98423.06;10409864;28;20245;-35
2023/12/01 02:03:06;;;;;;;29.07;20.13;;;;;;;-1.56;69.78;98297.56;10407545;28;20235;-37
2023/12/01 02:08:27;;;;;;;27.13;18.37;;;;;;;-1.67;68.71;98374.63;10406954;28;20233;-35
2023/12/01 02:13:29;;;;;;;29.03;18.40;;;;;;;-1.17;67.22;98290.38;10405258;28;20274;-35
2023/12/01 02:18:31;;;;;;;25.13;17.67;;;;;;;-1.17;66.87;98345.50;10402656;28;20457;-36
2023/12/01 02:23:33;;;;;;;29.57;18.30;;;;;;;-0.57;65.43;98272.50;10410959;28;20235;-37
2023/12/01 02:28:35;;;;;;;25.40;18.27;;;;;;;-1.31;67.41;98364.34;10369580;28;20322;-36
2023/12/01 02:33:37;;;;;;;26.60;18.17;;;;;;;-1.12;66.40;98339.00;10373955;28;20239;-36
2023/12/01 02:38:39;;;;;;;27.23;18.10;;;;;;;-1.19;67.15;98378.13;10367411;28;20241;-36
2023/12/01 02:43:41;;;;;;;29.87;17.23;;;;;;;-1.35;67.03;98412.81;10373705;28;20242;-35
2023/12/01 02:48:43;;;;;;;25.70;19.23;;;;;;;-0.93;67.14;98301.31;10368722;28;20240;-36
2023/12/01 02:53:44;;;;;;;30.50;19.53;;;;;;;-0.89;66.62;98305.28;10347131;28;20273;-38
2023/12/01 02:58:46;;;;;;;23.70;17.40;;;;;;;-1.08;65.97;98392.88;10364720;28;20671;-35
2023/12/01 03:03:48;;;;;;;23.60;18.03;;;;;;;-1.38;66.72;98466.44;10375586;28;21714;-35
2023/12/01 03:08:50;;;;;;;26.30;19.10;;;;;;;-1.40;67.19;98425.53;10370871;28;20630;-35
2023/12/01 03:13:51;;;;;;;23.83;16.83;;;;;;;-0.65;65.64;98316.09;10369887;28;20253;-36
2023/12/01 03:18:53;;;;;;;24.70;17.17;;;;;;;-0.28;64.11;98291.50;10362244;28;20534;-35
2023/12/01 03:23:55;;;;;;;22.77;18.00;;;;;;;-0.38;64.48;98284.66;10372602;28;20258;-36
2023/12/01 03:28:57;;;;;;;23.77;16.13;;;;;;;-0.23;63.63;98300.75;10418239;28;20247;-36
2023/12/01 03:33:59;;;;;;;23.33;15.67;;;;;;;0.33;62.64;98264.50;10380385;28;20323;-38
2023/12/01 03:39:01;;;;;;;25.57;17.10;;;;;;;-0.71;64.40;98427.00;10415200;28;20229;-37
2023/12/01 03:44:03;;;;;;;27.57;17.20;;;;;;;-0.18;62.75;98383.47;10404207;28;20239;-36
2023/12/01 03:49:05;;;;;;;24.70;17.73;;;;;;;-0.52;63.56;98418.25;10411879;28;20253;-36
2023/12/01 03:54:07;;;;;;;26.40;16.40;;;;;;;-0.43;64.27;98335.88;10411697;28;20242;-38
2023/12/01 03:59:09;;;;;;;25.53;16.30;;;;;;;0.01;63.87;98276.47;10409117;28;20239;-36
2023/12/01 04:04:11;;;;;;;24.33;17.13;;;;;;;0.49;61.44;98294.38;10410817;28;20316;-37
2023/12/01 04:09:13;;;;;;;23.30;17.03;;;;;;;0.07;60.92;98410.84;10410513;28;20652;-36
2023/12/01 04:14:15;;;;;;;21.70;16.07;;;;;;;0.00;62.65;98372.94;10390395;28;20232;-37
2023/12/01 04:19:17;;;;;;;23.73;15.77;;;;;;;-0.52;62.19;98494.47;10406395;28;20267;-37
2023/12/01 04:24:19;;;;;;;23.80;16.13;;;;;;;0.22;61.70;98331.34;10415081;28;20231;-36
2023/12/01 04:29:21;;;;;;;23.50;16.43;;;;;;;-0.16;63.02;98352.59;10407466;28;20226;-36
2023/12/01 04:34:23;;;;;;;23.00;15.43;;;;;;;-0.03;62.29;98361.88;10409339;28;20314;-35
2023/12/01 04:39:24;;;;;;;22.20;15.60;;;;;;;-0.85;63.53;98493.97;10406182;28;20378;-35
2023/12/01 04:44:26;;;;;;;27.40;16.20;;;;;;;-1.10;63.75;98529.53;10417590;28;20244;-35
2023/12/01 04:49:28;;;;;;;23.73;16.63;;;;;;;-0.15;62.74;98338.44;10409296;28;20249;-36
2023/12/01 04:54:29;;;;;;;24.50;16.93;;;;;;;-0.45;63.05;98424.56;10408042;28;20630;-36
2023/12/01 04:59:31;;;;;;;24.47;16.30;;;;;;;0.41;61.38;98318.03;10411535;28;20614;-36
2023/12/01 05:04:33;;;;;;;19.10;15.07;;;;;;;0.40;61.18;98297.13;10410822;28;20575;-35
2023/12/01 05:09:35;;;;;;;20.80;15.83;;;;;;;-0.33;61.69;98469.06;10420466;28;20712;-36
2023/12/01 05:14:37;;;;;;;21.50;15.37;;;;;;;-0.09;62.48;98402.78;10414577;28;20632;-36
2023/12/01 05:19:39;;;;;;;21.30;15.17;;;;;;;-0.13;63.52;98370.69;10414576;28;20231;-36
2023/12/01 05:24:41;;;;;;;21.50;16.00;;;;;;;-0.72;63.83;98477.06;10416944;28;20243;-38
2023/12/01 05:29:43;;;;;;;21.13;16.43;;;;;;;-1.10;63.63;98586.47;10421226;28;20282;-35
2023/12/01 05:34:44;;;;;;;20.30;14.77;;;;;;;-1.37;64.39;98615.03;10422690;28;20652;-38
2023/12/01 05:39:46;;;;;;;20.17;15.90;;;;;;;-0.05;62.39;98369.94;10411788;28;20237;-36
2023/12/01 05:44:48;;;;;;;22.00;15.97;;;;;;;-0.28;63.23;98388.78;10413195;28;20241;-36
2023/12/01 05:49:50;;;;;;;23.40;15.93;;;;;;;-0.71;63.95;98497.13;10419987;28;20235;-36
2023/12/01 05:54:52;;;;;;;19.70;15.00;;;;;;;-0.91;64.36;98488.47;10407520;28;20253;-36
2023/12/01 05:59:54;;;;;;;18.87;14.43;;;;;;;-0.45;63.12;98461.38;10421033;28;20257;-36
2023/12/01 06:04:57;;;;;;;19.40;15.17;;;;;;;0.28;60.99;98386.00;10414234;28;21419;-37
2023/12/01 06:09:59;;;;;;;22.90;15.07;;;;;;;-1.15;64.64;98570.31;10416282;28;20239;-36
2023/12/01 06:15:01;;;;;;;21.30;15.17;;;;;;;-0.03;61.60;98431.09;10417861;28;20235;-38
2023/12/01 06:20:04;;;;;;;20.70;15.03;;;;;;;-0.06;61.99;98439.31;10412989;28;20235;-35
2023/12/01 06:25:07;;;;;;;22.23;15.83;;;;;;;-0.87;63.90;98566.84;10418558;28;20750;-36
2023/12/01 06:30:11;;;;;;;20.47;15.87;;;;;;;-0.16;62.31;98449.88;10421305;28;20235;-35
2023/12/01 06:35:15;;;;;;;21.80;15.67;;;;;;;-0.29;61.80;98523.81;10410385;28;20238;-35
2023/12/01 06:40:18;;;;;;;20.67;15.67;;;;;;;-0.41;62.70;98522.38;10412035;28;20391;-37
2023/12/01 06:45:28;;;;;;;23.17;15.80;;;;;;;-0.28;63.17;98472.91;10414193;28;20330;-35
2023/12/01 06:50:31;;;;;;;24.47;17.20;;;;;;;-0.61;62.92;98572.31;10413002;28;20239;-35
2023/12/01 06:55:34;;;;;;;25.97;17.30;;;;;;;-1.35;64.75;98651.66;10411687;28;20763;-35
2023/12/01 07:00:37;;;;;;;27.10;18.50;;;;;;;-0.86;64.10;98551.91;10412194;28;20233;-35
2023/12/01 07:05:40;;;;;;;24.17;17.00;;;;;;;-1.13;63.81;98658.47;10416549;28;20598;-36
2023/12/01 07:10:43;;;;;;;30.43;18.43;;;;;;;-0.39;64.48;98441.56;10414143;28;20229;-35
2023/12/01 07:15:45;;;;;;;30.03;20.00;;;;;;;-0.97;64.63;98579.16;10411115;28;20700;-35
2023/12/01 07:20:47;;;;;;;27.50;17.90;;;;;;;-0.91;63.86;98590.88;10420138;28;20213;-35
2023/12/01 07:25:50;;;;;;;29.97;18.60;;;;;;;-1.02;64.78;98570.88;10414387;28;20346;-35
2023/12/01 07:30:51;;;;;;;29.20;18.77;;;;;;;-1.59;65.95;98686.13;10422298;28;20597;-35
2023/12/01 07:35:57;;;;;;;26.77;19.57;;;;;;;-0.61;63.61;98540.78;10419927;28;20670;-35
2023/12/01 07:40:58;;;;;;;30.40;18.03;;;;;;;-0.45;63.38;98529.72;10420311;28;20720;-34
2023/12/01 07:46:00;;;;;;;31.53;17.77;;;;;;;-0.91;63.89;98599.59;10416958;28;20256;-35
2023/12/01 07:51:04;;;;;;;31.07;18.93;;;;;;;-0.78;64.11;98527.56;10420002;28;20244;-36
2023/12/01 07:56:06;;;;;;;30.70;19.30;;;;;;;-1.02;64.75;98611.06;10410926;28;20606;-36
2023/12/01 08:01:08;;;;;;;36.47;20.63;;;;;;;-1.49;66.14;98679.13;10418334;28;20241;-35
2023/12/01 08:06:10;;;;;;;36.50;21.00;;;;;;;-1.12;65.02;98626.00;10423312;28;20261;-35
2023/12/01 08:11:12;;;;;;;30.70;19.47;;;;;;;-0.34;64.55;98459.53;10425718;28;20242;-35
2023/12/01 08:16:14;;;;;;;37.90;19.67;;;;;;;-0.89;64.55;98591.56;10412664;28;20269;-36
2023/12/01 08:21:16;;;;;;;34.80;20.53;;;;;;;0.78;62.28;98337.13;10419363;28;20781;-36
2023/12/01 08:26:22;;;;;;;43.33;21.30;;;;;;;-1.12;65.65;98628.63;10419525;28;20614;-36
2023/12/01 08:31:24;;;;;;;40.37;20.97;;;;;;;-1.24;65.64;98662.06;10419001;28;20730;-35
2023/12/01 08:36:26;;;;;;;44.33;22.90;;;;;;;-0.26;64.03;98484.09;10408010;28;20329;-36
2023/12/01 08:41:32;;;;;;;44.07;23.40;;;;;;;-1.10;65.98;98591.72;10399158;28;20229;-36
2023/12/01 08:46:35;;;;;;;39.90;21.97;;;;;;;-1.64;66.69;98680.44;10418685;28;20261;-35
2023/12/01 08:51:36;;;;;;;45.93;22.53;;;;;;;-1.09;65.83;98577.63;10417145;28;20230;-36
2023/12/01 08:56:38;;;;;;;40.03;21.80;;;;;;;-1.23;65.12;98661.06;10409902;28;20246;-35
2023/12/01 09:01:40;;;;;;;33.03;19.03;;;;;;;-0.48;64.79;98482.69;10410383;28;20272;-35
2023/12/01 09:06:42;;;;;;;32.50;19.60;;;;;;;-0.80;64.30;98619.66;10406550;28;20319;-35
2023/12/01 09:11:44;;;;;;;33.90;17.50;;;;;;;-1.15;66.12;98591.31;10394659;28;20721;-35
2023/12/01 09:16:46;;;;;;;29.57;18.77;;;;;;;0.16;62.62;98438.03;10402227;28;20243;-35
2023/12/01 09:21:48;;;;;;;33.13;19.07;;;;;;;-0.82;64.92;98564.63;10405419;28;20552;-34
2023/12/01 09:26:50;;;;;;;33.13;17.90;;;;;;;-0.40;64.87;98467.97;10413461;28;20231;-35
2023/12/01 09:31:52;;;;;;;32.87;17.83;;;;;;;-0.61;65.23;98527.63;10403453;28;20258;-35
2023/12/01 09:36:54;;;;;;;33.57;18.67;;;;;;;-0.68;64.97;98562.53;10406157;28;20243;-35
2023/12/01 09:41:57;;;;;;;34.53;18.83;;;;;;;-0.84;66.15;98537.66;10401023;28;20238;-34
2023/12/01 09:47:00;;;;;;;33.13;19.93;;;;;;;-0.83;65.88;98539.31;10402880;28;20676;-36
2023/12/01 09:52:03;;;;;;;33.57;18.63;;;;;;;0.05;64.03;98420.66;10405296;28;20231;-35
2023/12/01 09:57:07;;;;;;;35.20;17.97;;;;;;;-0.83;65.75;98533.25;10408944;28;20237;-35
2023/12/01 10:02:12;;;;;;;29.27;16.80;;;;;;;-0.13;63.51;98486.41;10400827;28;20263;-36
2023/12/01 10:07:13;;;;;;;34.60;18.93;;;;;;;-0.13;63.10;98514.47;10401375;28;20304;-36
2023/12/01 10:12:17;;;;;;;29.43;17.43;;;;;;;-0.57;64.12;98587.84;10411005;28;20621;-36
2023/12/01 10:17:27;;;;;;;28.63;16.27;;;;;;;-0.28;64.12;98514.16;10408320;28;20231;-36
2023/12/01 10:22:29;;;;;;;28.17;17.20;;;;;;;-0.65;64.61;98567.50;10381958;28;20247;-36
2023/12/01 10:27:31;;;;;;;33.53;17.33;;;;;;;-0.54;64.08;98569.97;10400070;28;20305;-35
2023/12/01 10:32:36;;;;;;;30.50;16.87;;;;;;;-0.34;64.54;98496.31;10404703;28;20234;-35
2023/12/01 10:37:37;;;;;;;32.80;17.00;;;;;;;-0.75;65.41;98537.81;10401684;28;20245;-35
2023/12/01 10:42:40;;;;;;;31.63;16.97;;;;;;;-0.85;64.88;98606.09;10385709;28;20234;-35
2023/12/01 10:47:44;;;;;;;31.07;17.60;;;;;;;-1.27;65.87;98674.63;10399475;28;20240;-35
2023/12/01 10:52:48;;;;;;;33.60;16.90;;;;;;;-0.90;65.39;98592.56;10401740;28;20892;-35
2023/12/01 10:57:53;;;;;;;30.17;17.10;;;;;;;-0.65;64.46;98535.97;10397293;28;20238;-35
2023/12/01 11:06:32;;;;;;;32.40;17.83;;;;;;;0.49;61.49;98520.75;10633484;27;20723;-71
2023/12/01 11:12:33;;;;;;;30.23;17.87;;;;;;;0.29;61.69;98535.84;10527745;28;20316;-71
2023/12/01 11:17:34;;;;;;;31.03;17.97;;;;;;;0.25;61.09;98616.06;10450749;28;20233;-71
2023/12/01 11:22:37;;;;;;;30.97;17.10;;;;;;;1.30;59.47;98471.47;10515630;28;20241;-70
2023/12/01 11:27:39;;;;;;;31.23;17.90;;;;;;;0.60;61.21;98542.56;10537434;28;20230;-70
2023/12/01 11:32:41;;;;;;;31.07;16.97;;;;;;;0.64;60.79;98564.97;10509208;28;20309;-72
2023/12/01 11:37:56;;;;;;;33.47;18.43;;;;;;;-0.25;62.63;98664.56;10501009;28;20321;-71
2023/12/01 11:42:58;;;;;;;29.67;17.47;;;;;;;-0.01;61.88;98686.06;10485157;28;20317;-72
2023/12/01 11:48:15;;;;;;;30.93;17.80;;;;;;;0.10;62.68;98615.69;10487082;28;20534;-70
2023/12/01 11:53:18;;;;;;;36.80;19.47;;;;;;;-0.12;63.59;98622.16;10521531;28;20436;-70
2023/12/01 11:58:21;;;;;;;30.63;18.50;;;;;;;0.72;62.48;98507.13;10534512;28;20270;-72
2023/12/01 12:03:23;;;;;;;32.23;18.30;;;;;;;0.17;62.37;98607.25;10540695;28;20699;-72
2023/12/01 12:08:26;;;;;;;29.63;18.33;;;;;;;0.52;61.42;98605.69;10517224;28;20612;-72
2023/12/01 12:13:27;;;;;;;29.63;19.07;;;;;;;0.63;61.67;98564.16;10525952;28;20244;-71
2023/12/01 12:18:30;;;;;;;33.37;20.10;;;;;;;0.62;61.20;98622.22;10514820;28;20612;-71
2023/12/01 12:23:33;;;;;;;29.30;17.17;;;;;;;0.71;60.65;98657.38;10488557;28;20747;-71
2023/12/01 12:28:35;;;;;;;31.10;19.43;;;;;;;0.14;61.75;98679.41;10464749;28;20233;-72
2023/12/01 12:33:37;;;;;;;34.93;21.50;;;;;;;0.56;61.61;98578.91;10452973;28;20629;-70
2023/12/01 12:38:39;;;;;;;33.73;20.93;;;;;;;0.84;60.41;98592.00;10479570;28;20253;-73
2023/12/01 12:43:41;;;;;;;33.93;21.37;;;;;;;0.09;60.86;98747.38;10507201;28;20244;-70
2023/12/01 12:48:44;;;;;;;29.20;18.17;;;;;;;0.01;61.19;98755.19;10485670;28;20227;-71
2023/12/01 12:53:46;;;;;;;28.57;19.40;;;;;;;0.53;60.04;98686.28;10488056;28;20234;-73
2023/12/01 12:58:52;;;;;;;29.00;18.50;;;;;;;0.57;61.24;98591.06;10509378;28;20246;-72
2023/12/01 13:03:55;;;;;;;28.10;17.53;;;;;;;0.40;62.02;98569.03;10523219;28;20687;-72
2023/12/01 13:08:57;;;;;;;26.13;17.50;;;;;;;0.62;61.30;98570.41;10487678;28;20267;-73
2023/12/01 13:14:03;;;;;;;28.27;18.83;;;;;;;0.86;60.93;98547.91;10476761;28;20318;-70
2023/12/01 13:19:06;;;;;;;29.43;18.87;;;;;;;-0.24;62.64;98733.75;10468992;28;20257;-70
2023/12/01 13:24:09;;;;;;;32.10;21.03;;;;;;;-0.13;63.60;98648.59;10502900;28;20311;-70
2023/12/01 13:29:11;;;;;;;29.67;18.20;;;;;;;0.05;62.31;98652.13;10513513;28;20302;-70
2023/12/01 13:34:12;;;;;;;26.87;18.07;;;;;;;0.93;61.75;98483.09;10505200;28;20265;-70
2023/12/01 13:39:17;;;;;;;30.53;18.27;;;;;;;-0.04;62.01;98678.50;10512266;28;20326;-70
2023/12/01 13:44:19;;;;;;;28.27;18.27;;;;;;;0.34;61.80;98588.03;10507698;28;20245;-70
2023/12/01 13:49:22;;;;;;;26.47;17.90;;;;;;;-0.58;63.49;98760.44;10470837;28;20231;-70
2023/12/01 13:54:24;;;;;;;27.23;16.37;;;;;;;0.06;63.21;98567.00;10464609;28;20234;-71
2023/12/01 13:59:25;;;;;;;26.83;18.20;;;;;;;1.32;60.84;98434.44;10469423;28;20555;-70
2023/12/01 14:04:27;;;;;;;29.07;17.97;;;;;;;-0.52;63.48;98715.25;10510848;28;20328;-70
2023/12/01 14:09:29;;;;;;;29.07;18.97;;;;;;;0.08;62.47;98595.78;10482375;28;20238;-70
2023/12/01 14:14:31;;;;;;;26.53;17.03;;;;;;;-0.17;62.80;98639.34;10511774;28;20303;-70
2023/12/01 14:19:33;;;;;;;30.70;18.43;;;;;;;-0.29;62.27;98731.53;10481925;28;20640;-70
2023/12/01 14:24:35;;;;;;;32.43;19.67;;;;;;;-0.54;64.02;98697.94;10509164;28;20336;-71
2023/12/01 14:29:36;;;;;;;30.37;18.40;;;;;;;-0.70;64.88;98693.22;10470154;28;20313;-70
2023/12/01 14:34:38;;;;;;;27.73;17.90;;;;;;;-0.45;64.39;98649.81;10471696;28;20241;-70
2023/12/01 14:39:40;;;;;;;27.27;17.27;;;;;;;-1.15;64.97;98783.81;10469388;28;20288;-70
2023/12/01 14:44:41;;;;;;;29.77;18.07;;;;;;;-0.28;63.49;98645.63;10505139;28;20233;-70
2023/12/01 14:49:43;;;;;;;27.33;18.73;;;;;;;-0.45;63.72;98718.97;10470628;28;20791;-70
2023/12/01 14:54:45;;;;;;;26.90;18.73;;;;;;;0.20;62.66;98601.69;10497835;28;20731;-70
2023/12/01 14:59:46;;;;;;;29.10;18.13;;;;;;;-0.18;63.30;98662.19;10448850;28;20266;-70
2023/12/01 15:04:48;;;;;;;30.43;18.07;;;;;;;-0.07;63.82;98595.44;10441179;28;20748;-70
2023/12/01 15:09:50;;;;;;;28.53;18.73;;;;;;;-0.44;63.74;98696.94;10441389;28;20317;-70
2023/12/01 15:14:52;;;;;;;35.10;18.53;;;;;;;-0.11;64.23;98555.44;10441711;28;20320;-70
2023/12/01 15:19:53;;;;;;;33.03;19.63;;;;;;;-1.05;65.79;98684.06;10443302;28;20234;-70
2023/12/01 15:24:55;;;;;;;33.50;22.63;;;;;;;-0.50;64.40;98596.78;10439811;28;20283;-72
2023/12/01 15:29:57;;;;;;;30.70;20.17;;;;;;;-0.26;64.26;98546.38;10435693;28;20234;-72
2023/12/01 15:34:58;;;;;;;30.27;18.90;;;;;;;-0.43;64.72;98569.00;10477443;28;20243;-72
2023/12/01 15:40:00;;;;;;;28.17;18.80;;;;;;;-0.17;63.94;98576.25;10481975;28;20798;-72
2023/12/01 15:45:03;;;;;;;29.50;19.37;;;;;;;0.01;62.74;98595.53;10444395;28;20360;-72
2023/12/01 15:50:05;;;;;;;27.90;17.80;;;;;;;-0.89;64.65;98736.88;10443332;28;21417;-72
2023/12/01 15:55:07;;;;;;;29.00;18.90;;;;;;;-0.85;64.75;98703.28;10484771;28;20229;-72
2023/12/01 16:00:09;;;;;;;29.83;19.27;;;;;;;-0.65;64.23;98672.59;10489492;28;20245;-72
2023/12/01 16:05:13;;;;;;;28.37;18.30;;;;;;;-0.41;65.44;98550.47;10490290;28;20276;-72
2023/12/01 16:10:14;;;;;;;29.93;18.63;;;;;;;0.81;62.34;98443.00;10448881;28;20260;-72
2023/12/01 16:15:16;;;;;;;30.53;18.90;;;;;;;-0.23;64.02;98584.69;10446855;28;20272;-72
2023/12/01 16:20:19;;;;;;;27.90;17.73;;;;;;;-0.62;64.11;98695.94;10445580;28;20245;-72
2023/12/01 16:25:20;;;;;;;29.87;17.60;;;;;;;-0.74;64.37;98725.97;10445469;28;20227;-72
2023/12/01 16:30:22;;;;;;;31.50;17.50;;;;;;;-0.17;64.56;98521.00;10446542;28;20234;-72
2023/12/01 16:35:24;;;;;;;30.20;19.17;;;;;;;-0.25;64.77;98521.72;10445988;28;20531;-71
2023/12/01 16:40:25;;;;;;;27.77;17.50;;;;;;;-1.32;65.40;98797.56;10443926;28;20303;-72
2023/12/01 16:45:27;;;;;;;28.07;18.03;;;;;;;-0.98;65.04;98677.28;10486887;28;20321;-71
2023/12/01 16:50:29;;;;;;;26.60;17.50;;;;;;;-1.22;64.73;98783.50;10487830;28;20234;-71
2023/12/01 16:55:30;;;;;;;29.70;16.80;;;;;;;-1.21;65.53;98701.16;10488130;28;20235;-71
2023/12/01 17:00:32;;;;;;;27.37;16.67;;;;;;;-1.00;65.17;98681.84;10467474;28;20232;-71
2023/12/01 17:05:34;;;;;;;27.33;18.07;;;;;;;-1.38;65.57;98713.13;10485930;28;20652;-71
2023/12/01 17:10:36;;;;;;;26.53;17.47;;;;;;;-1.24;65.04;98698.81;10485512;28;20218;-72
2023/12/01 17:15:37;;;;;;;24.50;17.10;;;;;;;-1.98;66.31;98817.88;10485326;28;20299;-69
2023/12/01 17:20:39;;;;;;;31.40;18.77;;;;;;;-1.33;65.00;98720.59;10483311;28;20230;-71
2023/12/01 17:25:41;;;;;;;29.23;18.23;;;;;;;-0.27;63.55;98528.94;10485328;28;20228;-72
2023/12/01 17:30:42;;;;;;;27.53;17.33;;;;;;;-0.59;63.45;98616.84;10484239;28;20233;-71
2023/12/01 17:35:44;;;;;;;28.00;17.83;;;;;;;-0.95;63.78;98692.78;10484459;28;20672;-72
2023/12/01 17:40:46;;;;;;;30.70;18.97;;;;;;;-0.83;63.60;98654.06;10488813;28;20245;-72
2023/12/01 17:45:47;;;;;;;36.63;18.53;;;;;;;-0.46;63.72;98543.81;10479336;28;20591;-72
2023/12/01 17:50:50;;;;;;;31.20;18.90;;;;;;;-0.51;62.63;98631.94;10480510;28;20250;-72
2023/12/01 17:55:52;;;;;;;26.60;17.07;;;;;;;-0.87;63.97;98698.19;10484866;28;20621;-72
2023/12/01 18:00:53;;;;;;;28.63;18.20;;;;;;;-0.79;64.76;98589.75;10476245;28;20231;-71
2023/12/01 18:05:55;;;;;;;29.50;19.20;;;;;;;-1.24;64.34;98753.94;10483326;28;20718;-73
2023/12/01 18:10:57;;;;;;;31.77;18.63;;;;;;;0.18;62.86;98475.53;10481737;28;20254;-72
2023/12/01 18:15:59;;;;;;;28.50;18.27;;;;;;;-0.39;62.62;98657.09;10473595;28;20241;-69
2023/12/01 18:21:02;;;;;;;28.37;17.20;;;;;;;-1.49;63.98;98851.50;10483620;28;20288;-72
2023/12/01 18:26:04;;;;;;;30.73;18.67;;;;;;;-1.45;64.39;98835.34;10483634;28;20879;-72
2023/12/01 18:31:06;;;;;;;25.93;16.47;;;;;;;-1.05;64.61;98684.06;10481817;28;20240;-74
2023/12/01 18:36:09;;;;;;;25.63;17.17;;;;;;;-0.29;63.15;98563.25;10483173;28;20232;-72
2023/12/01 18:41:10;;;;;;;22.93;16.13;;;;;;;-0.71;63.47;98665.28;10482252;28;20234;-72
2023/12/01 18:46:12;;;;;;;29.63;18.17;;;;;;;-1.02;63.54;98715.31;10483134;28;20231;-72
2023/12/01 18:51:14;;;;;;;25.77;17.70;;;;;;;-1.37;63.71;98806.66;10477266;28;20260;-72
2023/12/01 18:56:15;;;;;;;27.93;18.53;;;;;;;-1.44;64.25;98773.19;10481868;28;20232;-72
2023/12/01 19:01:17;;;;;;;28.10;16.33;;;;;;;0.00;62.21;98509.69;10481785;28;20315;-72
2023/12/01 19:06:19;;;;;;;29.03;18.27;;;;;;;-0.77;62.48;98664.03;10481678;28;20241;-72
2023/12/01 19:11:21;;;;;;;26.63;17.37;;;;;;;-1.38;62.98;98819.91;10478928;28;20227;-72
2023/12/01 19:16:22;;;;;;;25.50;17.47;;;;;;;-1.48;64.03;98784.91;10481957;28;20231;-69
2023/12/01 19:21:24;;;;;;;21.57;15.80;;;;;;;-0.47;63.00;98583.38;10481156;28;20782;-73
2023/12/01 19:26:25;;;;;;;23.90;16.03;;;;;;;-1.06;64.75;98598.34;10485960;28;20232;-72
2023/12/01 19:31:27;;;;;;;30.23;18.80;;;;;;;-1.43;63.42;98808.97;10484537;28;20246;-72
2023/12/01 19:36:29;;;;;;;25.73;17.77;;;;;;;-1.75;64.99;98781.03;10490865;28;20240;-72
2023/12/01 19:41:31;;;;;;;28.17;18.80;;;;;;;-2.13;65.78;98838.34;10489005;28;20245;-72
2023/12/01 19:46:33;;;;;;;25.73;17.37;;;;;;;-1.68;64.21;98812.81;10489774;28;20278;-72
2023/12/01 19:51:36;;;;;;;24.17;17.00;;;;;;;-0.97;63.94;98623.81;10489060;28;20314;-72
2023/12/01 19:56:38;;;;;;;26.50;17.40;;;;;;;-1.34;63.67;98760.94;10488296;28;20256;-72
2023/12/01 20:01:45;;;;;;;25.17;17.43;;;;;;;-1.52;64.31;98788.75;10483033;28;20683;-72
2023/12/01 20:06:46;;;;;;;26.03;16.60;;;;;;;-0.48;62.88;98584.38;10446752;28;20660;-72
2023/12/01 20:11:48;;;;;;;26.43;18.00;;;;;;;-0.48;62.04;98608.03;10448186;28;20245;-72
2023/12/01 20:16:50;;;;;;;24.53;16.27;;;;;;;-1.20;63.08;98746.63;10446545;28;20240;-72
2023/12/01 20:21:51;;;;;;;25.43;16.50;;;;;;;-1.58;63.17;98826.84;10445899;28;20236;-72
2023/12/01 20:26:53;;;;;;;23.27;15.97;;;;;;;-1.60;63.91;98768.41;10449434;28;20549;-72
2023/12/01 20:31:54;;;;;;;26.10;16.90;;;;;;;-1.95;64.34;98829.94;10450768;28;20332;-72
2023/12/01 20:36:56;;;;;;;30.20;17.90;;;;;;;-0.87;62.78;98597.53;10446069;28;20234;-72
2023/12/01 20:41:58;;;;;;;23.27;15.93;;;;;;;-1.74;63.64;98796.66;10420684;28;20285;-70
2023/12/01 20:47:02;;;;;;;25.40;15.93;;;;;;;-1.68;63.97;98784.81;10445432;28;20229;-70
2023/12/01 20:52:04;;;;;;;23.80;16.63;;;;;;;-1.43;63.97;98685.63;10444352;28;20242;-70
2023/12/01 20:57:06;;;;;;;21.63;14.67;;;;;;;-2.31;64.98;98879.13;10445238;28;20241;-70
2023/12/01 21:02:07;;;;;;;21.70;14.00;;;;;;;-1.75;65.07;98690.09;10451068;28;20253;-71
2023/12/01 21:07:09;;;;;;;22.17;15.20;;;;;;;-2.68;65.34;98919.59;10460623;28;20297;-72
2023/12/01 21:12:11;;;;;;;28.37;17.07;;;;;;;-2.38;65.45;98815.91;10473555;28;20269;-72
2023/12/01 21:17:13;;;;;;;25.70;16.70;;;;;;;-2.19;64.82;98801.31;10463064;28;20257;-71
2023/12/01 21:22:14;;;;;;;23.23;14.43;;;;;;;-2.19;64.78;98799.53;10442813;28;20323;-72
2023/12/01 21:27:16;;;;;;;23.50;15.63;;;;;;;-2.62;65.18;98870.28;10444032;28;20316;-71
2023/12/01 21:32:22;;;;;;;22.57;15.70;;;;;;;-1.60;63.80;98673.97;10470593;28;20721;-72
2023/12/01 21:37:23;;;;;;;19.40;14.23;;;;;;;-2.62;66.03;98834.44;10472313;28;20243;-71
2023/12/01 21:42:26;;;;;;;24.57;17.50;;;;;;;-1.42;63.22;98640.88;10471189;28;20236;-72
2023/12/01 21:47:28;;;;;;;20.47;13.87;;;;;;;-1.40;63.14;98638.94;10472548;28;20231;-71
2023/12/01 21:52:30;;;;;;;23.03;15.07;;;;;;;-2.46;64.59;98817.50;10455362;28;20246;-71
2023/12/01 21:57:31;;;;;;;22.30;14.43;;;;;;;-1.21;63.13;98563.81;10459658;28;20326;-72
2023/12/01 22:02:33;;;;;;;22.70;14.80;;;;;;;-1.59;63.12;98686.94;10464468;28;20513;-72
2023/12/01 22:07:35;;;;;;;21.50;15.70;;;;;;;-2.19;64.38;98773.31;10481138;28;20236;-72
2023/12/01 22:12:37;;;;;;;23.70;16.40;;;;;;;-2.52;64.62;98831.94;10477049;28;20332;-72
2023/12/01 22:17:38;;;;;;;20.90;15.40;;;;;;;-2.38;63.95;98849.97;10487475;28;20227;-71
2023/12/01 22:22:40;;;;;;;18.87;13.93;;;;;;;-2.45;64.36;98825.22;10483395;28;20235;-72
2023/12/01 22:27:42;;;;;;;18.97;13.77;;;;;;;-2.42;64.78;98777.00;10477650;28;20227;-72
2023/12/01 22:32:43;;;;;;;20.63;14.10;;;;;;;-2.33;63.99;98786.72;10481529;28;20597;-72
2023/12/01 22:37:45;;;;;;;21.13;14.83;;;;;;;-1.92;63.43;98724.75;10485784;28;20230;-72
2023/12/01 22:42:47;;;;;;;22.00;15.37;;;;;;;-1.15;62.96;98537.00;10479049;28;20310;-70
2023/12/01 22:47:48;;;;;;;20.10;14.37;;;;;;;-2.38;63.51;98865.69;10485418;28;20251;-72
2023/12/01 22:52:50;;;;;;;21.30;14.97;;;;;;;-2.35;64.43;98771.13;10478328;28;20231;-70
2023/12/01 22:57:52;;;;;;;19.97;14.13;;;;;;;-1.87;62.97;98727.00;10475828;28;20250;-72